createdAt,value
2022-11-15T00:01:31.409Z,71.17
2022-11-15T00:04:17.092Z,71.42
2022-11-15T00:07:02.956Z,71.48
2022-11-15T00:09:49.001Z,71.30
2022-11-15T00:12:34.862Z,70.81
2022-11-15T00:15:20.632Z,70.51
2022-11-15T00:18:06.370Z,70.97
2022-11-15T00:20:52.072Z,71.11
2022-11-15T00:23:38.248Z,70.92
2022-11-15T00:26:23.982Z,71.57
2022-11-15T00:29:09.999Z,71.40
2022-11-15T00:31:55.685Z,71.57
2022-11-15T00:34:41.413Z,71.19
2022-11-15T00:37:27.083Z,71.04
2022-11-15T00:40:13.875Z,71.34
2022-11-15T00:43:00.012Z,71.69
2022-11-15T00:45:45.592Z,71.35
2022-11-15T00:48:32.384Z,70.22
2022-11-15T00:51:18.169Z,70.84
2022-11-15T00:54:04.021Z,69.79
2022-11-15T00:56:49.868Z,70.06
2022-11-15T00:59:35.678Z,70.35
2022-11-15T01:02:21.479Z,70.36
2022-11-15T01:05:07.486Z,70.89
2022-11-15T01:07:54.139Z,70.52
2022-11-15T01:10:40.211Z,70.37
2022-11-15T01:13:26.017Z,71.18
2022-11-15T01:16:17.547Z,70.38
2022-11-15T01:19:03.348Z,70.77
2022-11-15T01:21:52.117Z,71.05
2022-11-15T01:24:38.112Z,70.20
2022-11-15T01:27:23.764Z,69.43
2022-11-15T01:30:09.859Z,69.88
2022-11-15T01:32:55.723Z,70.16
2022-11-15T01:35:41.482Z,69.89
2022-11-15T01:38:27.179Z,69.85
2022-11-15T01:41:20.382Z,70.58
2022-11-15T01:44:41.007Z,70.93
2022-11-15T01:47:29.165Z,70.03
2022-11-15T01:50:24.834Z,70.40
2022-11-15T01:53:11.754Z,70.06
2022-11-15T01:55:57.488Z,70.76
2022-11-15T01:58:43.492Z,70.50
2022-11-15T02:01:29.412Z,69.76
2022-11-15T02:04:21.630Z,69.52
2022-11-15T02:07:07.768Z,69.31
2022-11-15T02:09:53.555Z,68.40
2022-11-15T02:12:39.418Z,69.83
2022-11-15T02:15:26.265Z,69.62
2022-11-15T02:18:24.579Z,70.17
2022-11-15T02:21:20.472Z,69.95
2022-11-15T02:24:20.919Z,70.16
2022-11-15T02:27:29.509Z,69.06
2022-11-15T02:30:34.052Z,70.25
2022-11-15T02:33:22.384Z,72.12
2022-11-15T02:36:12.626Z,71.60
2022-11-15T02:39:08.679Z,71.38
2022-11-15T02:42:04.524Z,70.99
2022-11-15T02:44:50.614Z,70.46
2022-11-15T02:47:42.218Z,71.41
2022-11-15T02:50:29.435Z,71.25
2022-11-15T02:53:16.018Z,70.38
2022-11-15T02:56:01.754Z,70.36
2022-11-15T02:59:09.026Z,69.58
2022-11-15T03:02:03.595Z,69.41
2022-11-15T03:04:53.921Z,69.05
2022-11-15T03:08:02.697Z,68.86
2022-11-15T03:11:20.922Z,70.03
2022-11-15T03:14:21.119Z,69.74
2022-11-15T03:17:15.097Z,70.60
2022-11-15T03:20:02.515Z,69.83
2022-11-15T03:22:48.650Z,69.38
2022-11-15T03:25:34.543Z,69.25
2022-11-15T03:28:25.617Z,68.69
2022-11-15T03:31:31.312Z,67.91
2022-11-15T03:34:56.041Z,68.75
2022-11-15T03:37:47.166Z,69.02
2022-11-15T03:40:56.741Z,68.43
2022-11-15T03:44:02.669Z,67.39
2022-11-15T03:46:49.329Z,68.01
2022-11-15T03:49:36.485Z,67.98
2022-11-15T03:52:22.567Z,68.27
2022-11-15T03:55:09.542Z,69.54
2022-11-15T03:57:57.640Z,68.99
2022-11-15T04:00:43.341Z,67.91
2022-11-15T04:03:29.734Z,67.93
2022-11-15T04:06:15.475Z,68.47
2022-11-15T04:09:01.249Z,68.13
2022-11-15T04:11:46.928Z,68.30
2022-11-15T04:14:32.691Z,68.17
2022-11-15T04:17:18.496Z,68.58
2022-11-15T04:20:24.122Z,67.42
2022-11-15T04:23:38.505Z,68.48
2022-11-15T04:26:24.522Z,68.20
2022-11-15T04:29:28.735Z,68.03
2022-11-15T04:32:14.679Z,68.36
2022-11-15T04:35:00.577Z,67.60
2022-11-15T04:37:49.327Z,69.56
2022-11-15T04:40:36.014Z,68.42
2022-11-15T04:43:22.146Z,68.06
2022-11-15T04:46:07.843Z,68.63
2022-11-15T04:48:58.298Z,68.23
2022-11-15T04:51:44.904Z,70.69
2022-11-15T04:54:30.990Z,69.23
2022-11-15T04:57:16.577Z,68.78
2022-11-15T05:00:04.070Z,67.53
2022-11-15T05:03:08.748Z,67.47
2022-11-15T05:05:54.591Z,68.64
2022-11-15T05:08:40.301Z,67.75
2022-11-15T05:11:26.143Z,68.46
2022-11-15T05:14:11.851Z,68.08
2022-11-15T05:16:57.396Z,68.72
2022-11-15T05:19:43.027Z,68.54
2022-11-15T05:22:28.792Z,68.07
2022-11-15T05:25:14.654Z,67.87
2022-11-15T05:28:00.373Z,68.07
2022-11-15T05:30:46.181Z,69.10
2022-11-15T05:33:32.839Z,67.89
2022-11-15T05:36:21.441Z,68.32
2022-11-15T05:39:09.006Z,68.67
2022-11-15T05:42:21.014Z,68.26
2022-11-15T05:45:07.624Z,67.58
2022-11-15T05:47:53.419Z,67.89
2022-11-15T05:50:39.834Z,67.36
2022-11-15T05:53:25.571Z,67.19
2022-11-15T05:56:11.194Z,68.96
2022-11-15T05:58:59.699Z,67.73
2022-11-15T06:01:45.876Z,68.51
2022-11-15T06:04:31.904Z,68.19
2022-11-15T06:07:17.621Z,68.03
2022-11-15T06:10:03.925Z,67.95
2022-11-15T06:13:05.793Z,68.68
2022-11-15T06:15:51.511Z,68.03
2022-11-15T06:18:37.346Z,67.47
2022-11-15T06:21:23.017Z,70.27
2022-11-15T06:24:08.920Z,68.48
2022-11-15T06:26:55.131Z,68.98
2022-11-15T06:29:40.747Z,67.73
2022-11-15T06:32:26.645Z,67.70
2022-11-15T06:35:12.339Z,68.83
2022-11-15T06:38:03.472Z,67.97
2022-11-15T06:40:49.432Z,68.63
2022-11-15T06:43:35.581Z,70.63
2022-11-15T06:46:21.487Z,70.93
2022-11-15T06:49:09.812Z,70.81
2022-11-15T06:51:56.008Z,70.51
2022-11-15T06:54:41.904Z,69.97
2022-11-15T06:57:27.673Z,68.55
2022-11-15T07:00:14.616Z,69.29
2022-11-15T07:03:03.499Z,72.39
2022-11-15T07:05:54.350Z,70.96
2022-11-15T07:08:42.572Z,71.18
2022-11-15T07:11:28.613Z,71.43
2022-11-15T07:14:14.810Z,72.06
2022-11-15T07:17:00.904Z,69.04
2022-11-15T07:19:46.804Z,70.79
2022-11-15T07:22:32.577Z,73.26
2022-11-15T07:25:18.334Z,70.93
2022-11-15T07:28:04.640Z,70.46
2022-11-15T07:30:51.080Z,73.09
2022-11-15T07:33:37.184Z,71.86
2022-11-15T07:36:22.876Z,70.61
2022-11-15T07:39:08.481Z,70.19
2022-11-15T07:42:14.012Z,69.34
2022-11-15T07:45:00.133Z,71.50
2022-11-15T07:47:49.114Z,69.19
2022-11-15T07:50:35.240Z,67.07
2022-11-15T07:53:20.978Z,66.33
2022-11-15T07:56:08.438Z,65.80
2022-11-15T07:58:54.233Z,65.91
2022-11-15T08:01:39.969Z,65.70
2022-11-15T08:04:26.064Z,67.94
2022-11-15T08:07:11.935Z,66.36
2022-11-15T08:09:58.507Z,64.35
2022-11-15T08:12:44.275Z,64.79
2022-11-15T08:15:30.603Z,66.96
2022-11-15T08:18:17.217Z,66.95
2022-11-15T08:21:02.893Z,66.70
2022-11-15T08:23:48.609Z,67.40
2022-11-15T08:26:34.226Z,68.98
2022-11-15T08:29:20.027Z,68.83
2022-11-15T08:32:05.911Z,70.10
2022-11-15T08:34:51.642Z,70.21
2022-11-15T08:37:37.327Z,73.48
2022-11-15T08:40:24.040Z,71.98
2022-11-15T08:43:10.075Z,72.97
2022-11-15T08:45:58.542Z,69.98
2022-11-15T08:48:44.512Z,68.15
2022-11-15T08:51:30.380Z,68.43
2022-11-15T08:54:15.850Z,68.76
2022-11-15T08:57:01.603Z,68.95
2022-11-15T08:59:47.419Z,71.08
2022-11-15T09:02:33.397Z,69.19
2022-11-15T09:05:19.727Z,67.40
2022-11-15T09:08:32.947Z,71.63
2022-11-15T09:11:17.487Z,69.11
2022-11-15T09:14:03.298Z,68.45
2022-11-15T09:16:49.122Z,67.93
2022-11-15T09:19:34.831Z,67.41
2022-11-15T09:22:20.539Z,68.34
2022-11-15T09:25:10.040Z,67.67
2022-11-15T09:27:57.854Z,66.11
2022-11-15T09:30:43.649Z,67.52
2022-11-15T09:33:29.945Z,67.65
2022-11-15T09:36:17.792Z,65.76
2022-11-15T09:39:03.798Z,65.44
2022-11-15T09:42:11.863Z,69.67
2022-11-15T09:45:30.712Z,66.61
2022-11-15T09:48:36.870Z,65.51
2022-11-15T09:51:06.181Z,63.79
2022-11-15T09:56:34.044Z,63.64
2022-11-15T09:59:23.252Z,62.42
2022-11-15T10:02:09.461Z,63.63
2022-11-15T10:04:37.669Z,65.42
2022-11-15T10:07:19.811Z,65.52
2022-11-15T10:10:17.169Z,66.50
2022-11-15T10:12:47.570Z,66.26
2022-11-15T10:15:16.365Z,71.86
2022-11-15T10:17:56.384Z,69.88
2022-11-15T10:20:26.079Z,68.38
2022-11-15T10:22:59.774Z,65.38
2022-11-15T10:25:32.208Z,65.36
2022-11-15T10:28:18.918Z,67.01
2022-11-15T10:30:48.291Z,65.86
2022-11-15T10:33:24.241Z,66.86
2022-11-15T10:36:10.199Z,66.53
2022-11-15T10:38:49.677Z,67.94
2022-11-15T10:41:27.509Z,65.79
2022-11-15T10:44:19.757Z,65.01
2022-11-15T10:46:51.458Z,65.35
2022-11-15T10:49:23.269Z,66.07
2022-11-15T10:51:55.258Z,66.12
2022-11-15T10:54:26.465Z,64.82
2022-11-15T10:56:55.363Z,67.92
2022-11-15T10:59:29.439Z,65.11
2022-11-15T11:01:57.035Z,63.73
2022-11-15T11:04:24.451Z,63.56
2022-11-15T11:06:56.611Z,68.69
2022-11-15T11:09:37.023Z,67.55
2022-11-15T11:12:05.903Z,67.77
2022-11-15T11:14:34.691Z,69.14
2022-11-15T11:17:14.123Z,67.32
2022-11-15T11:20:04.619Z,70.23
2022-11-15T11:22:46.035Z,67.49
2022-11-15T11:25:22.172Z,68.44
2022-11-15T11:28:00.694Z,65.72
2022-11-15T11:30:54.149Z,73.22
2022-11-15T11:33:33.650Z,72.47
2022-11-15T11:36:19.701Z,68.88
2022-11-15T11:39:19.227Z,68.06
2022-11-15T11:42:19.177Z,68.17
2022-11-15T11:45:14.583Z,67.74
2022-11-15T11:47:48.580Z,67.34
2022-11-15T11:50:24.488Z,66.93
2022-11-15T11:53:04.598Z,66.32
2022-11-15T11:55:42.482Z,67.51
2022-11-15T11:58:22.950Z,68.90
2022-11-15T12:00:56.356Z,68.14
2022-11-15T12:03:45.340Z,67.10
2022-11-15T12:06:43.983Z,67.60
2022-11-15T12:09:18.590Z,66.97
2022-11-15T12:11:57.563Z,67.10
2022-11-15T12:14:43.976Z,66.92
2022-11-15T12:17:12.240Z,65.94
2022-11-15T12:19:40.474Z,65.77
2022-11-15T12:22:21.841Z,65.61
2022-11-15T12:25:18.490Z,66.31
2022-11-15T12:27:51.796Z,67.69
2022-11-15T12:30:23.085Z,67.26
2022-11-15T12:32:59.287Z,68.70
2022-11-15T12:35:35.804Z,68.26
2022-11-15T12:38:03.359Z,68.17
2022-11-15T12:40:38.965Z,67.39
2022-11-15T12:43:15.646Z,67.54
2022-11-15T12:45:45.080Z,67.47
2022-11-15T12:48:18.545Z,67.51
2022-11-15T12:50:55.281Z,66.90
2022-11-15T12:53:28.748Z,66.97
2022-11-15T12:56:05.465Z,68.33
2022-11-15T12:58:47.234Z,67.73
2022-11-15T13:01:40.993Z,67.00
2022-11-15T13:04:20.448Z,68.29
2022-11-15T13:06:52.364Z,67.67
2022-11-15T13:09:34.943Z,67.33
2022-11-15T13:12:03.138Z,67.08
2022-11-15T13:14:43.531Z,65.63
2022-11-15T13:17:20.084Z,67.26
2022-11-15T13:19:48.995Z,66.77
2022-11-15T13:22:35.658Z,66.50
2022-11-15T13:25:03.003Z,70.20
2022-11-15T13:27:30.564Z,70.37
2022-11-15T13:29:57.928Z,71.31
2022-11-15T13:32:25.317Z,68.27
2022-11-15T13:34:53.847Z,67.58
2022-11-15T13:37:21.139Z,68.91
2022-11-15T13:39:49.254Z,68.63
2022-11-15T13:42:21.295Z,68.32
2022-11-15T13:44:59.349Z,66.97
2022-11-15T13:47:28.411Z,65.83
2022-11-15T13:49:58.045Z,66.50
2022-11-15T13:52:32.146Z,67.73
2022-11-15T13:55:12.060Z,67.11
2022-11-15T13:57:56.880Z,73.16
2022-11-15T14:00:35.391Z,73.43
2022-11-15T14:03:08.260Z,69.91
2022-11-15T14:05:35.672Z,73.29
2022-11-15T14:08:21.649Z,74.58
2022-11-15T14:10:49.027Z,71.86
2022-11-15T14:13:30.312Z,74.39
2022-11-15T14:16:16.979Z,71.41
2022-11-15T14:18:47.261Z,70.72
2022-11-15T14:21:14.628Z,69.32
2022-11-15T14:23:42.095Z,68.76
2022-11-15T14:26:33.493Z,70.58
2022-11-15T14:29:29.364Z,72.80
2022-11-15T14:32:13.335Z,70.34
2022-11-15T14:34:40.740Z,70.64
2022-11-15T14:37:23.113Z,69.99
2022-11-15T14:39:50.600Z,70.53
2022-11-15T14:42:18.807Z,69.94
2022-11-15T14:44:46.527Z,69.51
2022-11-15T14:47:14.005Z,71.93
2022-11-15T14:49:41.645Z,69.27
2022-11-15T14:52:20.031Z,69.04
2022-11-15T14:54:47.643Z,72.68
2022-11-15T14:57:14.992Z,71.11
2022-11-15T14:59:42.359Z,69.75
2022-11-15T15:02:16.471Z,69.74
2022-11-15T15:04:43.839Z,69.43
2022-11-15T15:07:11.546Z,68.96
2022-11-15T15:09:38.967Z,68.48
2022-11-15T15:12:12.499Z,69.99
2022-11-15T15:14:40.152Z,69.35
2022-11-15T15:17:07.499Z,69.07
2022-11-15T15:19:34.838Z,69.30
2022-11-15T15:22:02.457Z,69.42
2022-11-15T15:24:29.821Z,68.35
2022-11-15T15:26:57.174Z,68.67
2022-11-15T15:29:24.780Z,67.70
2022-11-15T15:31:52.144Z,67.56
2022-11-15T15:34:19.471Z,68.07
2022-11-15T15:36:47.170Z,68.98
2022-11-15T15:39:14.554Z,69.13
2022-11-15T15:41:41.909Z,67.81
2022-11-15T15:44:09.519Z,67.93
2022-11-15T15:46:36.927Z,68.64
2022-11-15T15:49:04.453Z,69.26
2022-11-15T15:51:32.152Z,68.22
2022-11-15T15:53:59.503Z,69.13
2022-11-15T15:56:26.881Z,69.13
2022-11-15T15:58:56.417Z,68.70
2022-11-15T16:01:23.845Z,69.44
2022-11-15T16:03:51.451Z,68.32
2022-11-15T16:06:36.708Z,68.38
2022-11-15T16:09:20.644Z,68.13
2022-11-15T16:11:48.394Z,68.88
2022-11-15T16:14:15.982Z,68.18
2022-11-15T16:16:43.395Z,69.67
2022-11-15T16:19:10.805Z,70.20
2022-11-15T16:21:38.433Z,69.58
2022-11-15T16:24:06.318Z,69.71
2022-11-15T16:26:33.671Z,69.82
2022-11-15T16:29:01.279Z,70.34
2022-11-15T16:31:28.645Z,69.09
2022-11-15T16:33:56.004Z,70.38
2022-11-15T16:36:29.946Z,71.71
2022-11-15T16:38:58.763Z,71.55
2022-11-15T16:41:26.414Z,70.74
2022-11-15T16:43:54.008Z,69.36
2022-11-15T16:46:22.585Z,69.27
2022-11-15T16:48:50.272Z,68.56
2022-11-15T16:51:17.737Z,69.22
2022-11-15T16:53:45.133Z,69.49
2022-11-15T16:56:27.348Z,69.01
2022-11-15T16:58:55.361Z,68.77
2022-11-15T17:01:25.796Z,68.86
2022-11-15T17:03:53.265Z,69.36
2022-11-15T17:06:21.306Z,69.00
2022-11-15T17:08:49.049Z,69.07
2022-11-15T17:11:18.464Z,67.60
2022-11-15T17:13:45.869Z,68.74
2022-11-15T17:16:14.559Z,68.58
2022-11-15T17:18:42.336Z,68.21
2022-11-15T17:21:17.143Z,69.48
2022-11-15T17:23:44.776Z,69.41
2022-11-15T17:26:28.976Z,69.08
2022-11-15T17:28:59.253Z,68.77
2022-11-15T17:31:27.097Z,69.15
2022-11-15T17:33:54.505Z,69.62
2022-11-15T17:36:22.853Z,69.81
2022-11-15T17:38:56.578Z,69.59
2022-11-15T17:41:26.892Z,69.64
2022-11-15T17:43:55.484Z,68.33
2022-11-15T17:46:22.859Z,69.44
2022-11-15T17:48:50.444Z,70.12
2022-11-15T17:51:18.264Z,69.95
2022-11-15T17:53:46.795Z,69.72
2022-11-15T17:56:18.477Z,70.06
2022-11-15T17:58:53.416Z,71.78
2022-11-15T18:01:22.307Z,70.39
2022-11-15T18:03:50.015Z,69.46
2022-11-15T18:06:17.676Z,69.04
2022-11-15T18:08:46.039Z,68.87
2022-11-15T18:11:19.908Z,68.85
2022-11-15T18:13:52.020Z,68.04
2022-11-15T18:16:22.241Z,68.77
2022-11-15T18:18:49.694Z,70.13
2022-11-15T18:21:18.713Z,69.91
2022-11-15T18:23:46.384Z,69.43
2022-11-15T18:26:14.809Z,69.23
2022-11-15T18:28:45.618Z,69.40
2022-11-15T18:31:14.273Z,69.55
2022-11-15T18:33:42.936Z,69.19
2022-11-15T18:36:12.469Z,69.07
2022-11-15T18:38:40.177Z,68.40
2022-11-15T18:41:11.294Z,68.80
2022-11-15T18:43:39.027Z,68.98
2022-11-15T18:46:09.159Z,69.51
2022-11-15T18:48:37.518Z,69.37
2022-11-15T18:51:08.134Z,71.49
2022-11-15T18:53:36.306Z,71.06
2022-11-15T18:56:14.010Z,69.66
2022-11-15T18:58:45.183Z,69.64
2022-11-15T19:01:17.358Z,69.63
2022-11-15T19:03:46.675Z,69.62
2022-11-15T19:06:15.579Z,69.36
2022-11-15T19:08:43.484Z,68.93
2022-11-15T19:11:13.382Z,69.21
2022-11-15T19:13:40.928Z,69.13
2022-11-15T19:16:09.565Z,70.03
2022-11-15T19:18:37.163Z,69.47
2022-11-15T19:21:06.570Z,69.71
2022-11-15T19:23:34.986Z,70.47
2022-11-15T19:26:04.088Z,69.69
2022-11-15T19:28:31.591Z,70.24
2022-11-15T19:31:15.595Z,70.23
2022-11-15T19:33:43.944Z,70.44
2022-11-15T19:36:13.806Z,70.34
2022-11-15T19:38:41.439Z,70.13
2022-11-15T19:41:22.622Z,70.15
2022-11-15T19:43:52.887Z,70.04
2022-11-15T19:46:21.858Z,70.03
2022-11-15T19:48:49.397Z,72.19
2022-11-15T19:51:19.382Z,70.88
2022-11-15T19:53:47.221Z,69.56
2022-11-15T19:56:16.612Z,70.07
2022-11-15T19:58:44.258Z,70.81
2022-11-15T20:01:20.669Z,70.79
2022-11-15T20:03:48.784Z,70.96
2022-11-15T20:06:17.728Z,72.91
2022-11-15T20:08:45.679Z,72.51
2022-11-15T20:11:13.326Z,73.52
2022-11-15T20:13:40.964Z,72.18
2022-11-15T20:16:15.004Z,71.25
2022-11-15T20:18:42.901Z,70.65
2022-11-15T20:21:10.276Z,70.48
2022-11-15T20:23:38.958Z,70.59
2022-11-15T20:26:07.920Z,70.72
2022-11-15T20:28:36.167Z,72.17
2022-11-15T20:31:03.874Z,71.58
2022-11-15T20:33:31.649Z,71.17
2022-11-15T20:36:02.472Z,70.43
2022-11-15T20:38:29.905Z,70.54
2022-11-15T20:41:00.233Z,73.27
2022-11-15T20:43:27.913Z,74.07
2022-11-15T20:45:55.443Z,74.92
2022-11-15T20:48:23.064Z,74.70
2022-11-15T20:50:50.434Z,75.67
2022-11-15T20:53:19.095Z,73.26
2022-11-15T20:55:48.289Z,71.79
2022-11-15T20:58:15.886Z,71.82
2022-11-15T21:00:44.830Z,71.78
2022-11-15T21:03:13.640Z,70.87
2022-11-15T21:05:43.383Z,70.95
2022-11-15T21:08:11.358Z,72.03
2022-11-15T21:10:58.655Z,71.50
2022-11-15T21:13:26.682Z,72.67
2022-11-15T21:16:00.543Z,70.84
2022-11-15T21:18:27.876Z,74.11
2022-11-15T21:20:55.536Z,73.35
2022-11-15T21:23:22.895Z,72.23
2022-11-15T21:25:51.183Z,75.00
2022-11-15T21:28:18.814Z,73.14
2022-11-15T21:30:54.104Z,73.17
2022-11-15T21:33:23.801Z,71.89
2022-11-15T21:35:51.535Z,71.43
2022-11-15T21:38:18.921Z,72.04
2022-11-15T21:40:46.564Z,70.73
2022-11-15T21:43:13.929Z,70.54
2022-11-15T21:45:41.372Z,70.04
2022-11-15T21:48:09.017Z,70.43
2022-11-15T21:50:36.335Z,71.86
2022-11-15T21:53:03.649Z,72.08
2022-11-15T21:55:31.262Z,71.44
2022-11-15T21:57:58.626Z,70.86
2022-11-15T22:00:52.152Z,72.26
2022-11-15T22:03:19.790Z,72.13
2022-11-15T22:05:47.583Z,70.82
2022-11-15T22:08:14.936Z,71.78
2022-11-15T22:10:46.767Z,71.64
2022-11-15T22:13:14.304Z,71.70
2022-11-15T22:15:45.105Z,72.03
2022-11-15T22:18:12.819Z,72.30
2022-11-15T22:20:44.820Z,72.65
2022-11-15T22:23:12.704Z,73.78
2022-11-15T22:25:40.372Z,72.49
2022-11-15T22:28:07.737Z,73.61
2022-11-15T22:30:35.485Z,72.61
2022-11-15T22:33:02.891Z,72.25
2022-11-15T22:35:30.277Z,74.45
2022-11-15T22:37:57.908Z,74.80
2022-11-15T22:40:25.288Z,73.01
2022-11-15T22:42:52.663Z,76.11
2022-11-15T22:45:20.357Z,75.47
2022-11-15T22:47:47.907Z,75.47
2022-11-15T22:50:15.347Z,73.35
2022-11-15T22:52:43.047Z,72.68
2022-11-15T22:55:10.437Z,71.96
2022-11-15T22:57:40.964Z,72.12
2022-11-15T23:00:13.516Z,73.22
2022-11-15T23:02:40.895Z,77.01
2022-11-15T23:05:08.742Z,75.56
2022-11-15T23:07:36.201Z,73.29
2022-11-15T23:10:23.743Z,75.48
2022-11-15T23:13:10.108Z,78.33
2022-11-15T23:15:56.110Z,73.95
2022-11-15T23:18:23.882Z,74.09
2022-11-15T23:20:51.250Z,72.82
2022-11-15T23:23:18.628Z,72.99
2022-11-15T23:25:46.302Z,72.18
2022-11-15T23:28:13.711Z,72.48
2022-11-15T23:31:00.164Z,73.81
2022-11-15T23:33:46.528Z,73.92
2022-11-15T23:36:13.888Z,76.88
2022-11-15T23:38:41.516Z,77.22
2022-11-15T23:41:08.898Z,77.08
2022-11-15T23:43:36.268Z,75.87
2022-11-15T23:46:03.928Z,75.08
2022-11-15T23:48:31.523Z,76.44
2022-11-15T23:50:59.247Z,74.75
2022-11-15T23:53:26.900Z,75.53
2022-11-15T23:55:58.541Z,73.98
2022-11-15T23:58:25.938Z,76.25
